Harvey, Illinois
Current Conditions -  °F | °C
As of 3:55 PM on Friday 28 Nov 2014 (Local Time) from KIGQ Reporting Station
Overcast Overcast  
Wind Chill: 22°   Ceiling: 2500
Heat Index: 31°   Visibility: 10mi
Dew Point: 23°   Wind: 12mph
Humidity: 71%   Direction: 170°S
Pressure: 30.01"   Gusts: 21mph
Location:  41.61°N, 87.64°W
Report Text: KIGQ 282155Z AUTO 17010G18KT 10SM OVC025 00/M05 A3001 RMK AO2 T10031050
Loading
Personal Weather Stations






























Interactive Weather Map New forecast layout! Learn more

10-Day Weather Forecast

Advertisements
Track Severe Weather on mobile